sensor_id;sensor_type;location;lat;lon;timestamp;P1;durP1;ratioP1;P2;durP2;ratioP2
15295;SDS011;7749;49.964;7.890;2023-07-31T00:00:54;3.58;;;2.13;;
15295;SDS011;7749;49.964;7.890;2023-07-31T00:03:22;5.22;;;1.92;;
15295;SDS011;7749;49.964;7.890;2023-07-31T00:05:49;7.55;;;2.25;;
15295;SDS011;7749;49.964;7.890;2023-07-31T00:08:17;3.65;;;1.40;;
15295;SDS011;7749;49.964;7.890;2023-07-31T00:10:44;5.82;;;1.70;;
15295;SDS011;7749;49.964;7.890;2023-07-31T00:13:12;6.15;;;1.88;;
15295;SDS011;7749;49.964;7.890;2023-07-31T00:15:39;3.75;;;1.80;;
15295;SDS011;7749;49.964;7.890;2023-07-31T00:18:07;3.58;;;1.50;;
15295;SDS011;7749;49.964;7.890;2023-07-31T00:20:34;3.15;;;1.60;;
15295;SDS011;7749;49.964;7.890;2023-07-31T00:23:01;6.60;;;2.08;;
15295;SDS011;7749;49.964;7.890;2023-07-31T00:25:29;2.97;;;1.60;;
15295;SDS011;7749;49.964;7.890;2023-07-31T00:27:56;4.32;;;1.88;;
15295;SDS011;7749;49.964;7.890;2023-07-31T00:30:24;3.97;;;1.77;;
15295;SDS011;7749;49.964;7.890;2023-07-31T00:32:52;3.35;;;1.67;;
15295;SDS011;7749;49.964;7.890;2023-07-31T00:35:19;2.88;;;1.55;;
15295;SDS011;7749;49.964;7.890;2023-07-31T00:37:47;4.65;;;1.77;;
15295;SDS011;7749;49.964;7.890;2023-07-31T00:40:14;6.00;;;2.25;;
15295;SDS011;7749;49.964;7.890;2023-07-31T00:42:42;4.30;;;1.95;;
15295;SDS011;7749;49.964;7.890;2023-07-31T00:45:09;2.83;;;1.60;;
15295;SDS011;7749;49.964;7.890;2023-07-31T00:47:37;2.40;;;1.45;;
15295;SDS011;7749;49.964;7.890;2023-07-31T00:50:04;3.85;;;1.70;;
15295;SDS011;7749;49.964;7.890;2023-07-31T00:52:34;3.88;;;1.90;;
15295;SDS011;7749;49.964;7.890;2023-07-31T00:55:03;5.00;;;1.85;;
15295;SDS011;7749;49.964;7.890;2023-07-31T00:57:31;4.18;;;1.70;;
15295;SDS011;7749;49.964;7.890;2023-07-31T01:00:00;3.65;;;2.13;;
15295;SDS011;7749;49.964;7.890;2023-07-31T01:02:27;4.47;;;1.83;;
15295;SDS011;7749;49.964;7.890;2023-07-31T01:04:55;6.80;;;2.05;;
15295;SDS011;7749;49.964;7.890;2023-07-31T01:10:22;4.38;;;2.03;;
15295;SDS011;7749;49.964;7.890;2023-07-31T01:12:53;3.42;;;2.03;;
15295;SDS011;7749;49.964;7.890;2023-07-31T01:15:23;4.05;;;2.22;;
15295;SDS011;7749;49.964;7.890;2023-07-31T01:17:50;4.00;;;2.20;;
15295;SDS011;7749;49.964;7.890;2023-07-31T01:20:22;6.25;;;2.30;;
15295;SDS011;7749;49.964;7.890;2023-07-31T01:30:58;4.55;;;2.00;;
15295;SDS011;7749;49.964;7.890;2023-07-31T01:33:28;3.30;;;2.30;;
15295;SDS011;7749;49.964;7.890;2023-07-31T01:35:57;4.05;;;2.40;;
15295;SDS011;7749;49.964;7.890;2023-07-31T01:38:24;3.20;;;1.95;;
15295;SDS011;7749;49.964;7.890;2023-07-31T01:40:52;4.88;;;2.10;;
15295;SDS011;7749;49.964;7.890;2023-07-31T01:43:20;4.03;;;2.30;;
15295;SDS011;7749;49.964;7.890;2023-07-31T01:45:47;4.45;;;1.92;;
15295;SDS011;7749;49.964;7.890;2023-07-31T01:48:15;5.20;;;2.08;;
15295;SDS011;7749;49.964;7.890;2023-07-31T01:50:42;5.30;;;2.47;;
15295;SDS011;7749;49.964;7.890;2023-07-31T01:53:10;4.82;;;2.20;;
15295;SDS011;7749;49.964;7.890;2023-07-31T01:55:38;7.95;;;2.40;;
15295;SDS011;7749;49.964;7.890;2023-07-31T01:58:06;6.03;;;2.20;;
15295;SDS011;7749;49.964;7.890;2023-07-31T02:00:33;4.75;;;2.47;;
15295;SDS011;7749;49.964;7.890;2023-07-31T02:03:01;5.00;;;2.10;;
15295;SDS011;7749;49.964;7.890;2023-07-31T02:05:28;7.03;;;2.60;;
15295;SDS011;7749;49.964;7.890;2023-07-31T02:07:56;4.95;;;2.25;;
15295;SDS011;7749;49.964;7.890;2023-07-31T02:10:23;5.13;;;2.55;;
15295;SDS011;7749;49.964;7.890;2023-07-31T02:12:51;4.90;;;2.22;;
15295;SDS011;7749;49.964;7.890;2023-07-31T02:15:18;3.80;;;2.28;;
15295;SDS011;7749;49.964;7.890;2023-07-31T02:17:45;3.67;;;2.50;;
15295;SDS011;7749;49.964;7.890;2023-07-31T02:20:13;3.83;;;2.08;;
15295;SDS011;7749;49.964;7.890;2023-07-31T02:22:40;3.50;;;2.15;;
15295;SDS011;7749;49.964;7.890;2023-07-31T02:25:08;5.20;;;2.28;;
15295;SDS011;7749;49.964;7.890;2023-07-31T02:27:35;3.72;;;2.10;;
15295;SDS011;7749;49.964;7.890;2023-07-31T02:30:03;3.67;;;1.70;;
15295;SDS011;7749;49.964;7.890;2023-07-31T02:32:31;3.97;;;2.30;;
15295;SDS011;7749;49.964;7.890;2023-07-31T02:34:58;4.82;;;2.20;;
15295;SDS011;7749;49.964;7.890;2023-07-31T02:37:25;3.17;;;1.80;;
15295;SDS011;7749;49.964;7.890;2023-07-31T02:39:55;5.45;;;2.17;;
15295;SDS011;7749;49.964;7.890;2023-07-31T02:42:22;3.85;;;2.22;;
15295;SDS011;7749;49.964;7.890;2023-07-31T02:44:50;5.05;;;2.60;;
15295;SDS011;7749;49.964;7.890;2023-07-31T02:47:22;6.80;;;2.22;;
15295;SDS011;7749;49.964;7.890;2023-07-31T02:49:50;4.68;;;2.40;;
15295;SDS011;7749;49.964;7.890;2023-07-31T02:52:17;7.10;;;2.50;;
15295;SDS011;7749;49.964;7.890;2023-07-31T02:54:44;4.07;;;2.25;;
15295;SDS011;7749;49.964;7.890;2023-07-31T02:57:12;4.47;;;2.20;;
15295;SDS011;7749;49.964;7.890;2023-07-31T02:59:40;3.28;;;1.83;;
15295;SDS011;7749;49.964;7.890;2023-07-31T03:02:07;3.47;;;2.08;;
15295;SDS011;7749;49.964;7.890;2023-07-31T03:04:34;4.68;;;2.28;;
15295;SDS011;7749;49.964;7.890;2023-07-31T03:07:02;4.53;;;2.50;;
15295;SDS011;7749;49.964;7.890;2023-07-31T03:09:30;4.57;;;2.30;;
15295;SDS011;7749;49.964;7.890;2023-07-31T03:11:59;5.30;;;2.63;;
15295;SDS011;7749;49.964;7.890;2023-07-31T03:14:26;4.07;;;2.00;;
15295;SDS011;7749;49.964;7.890;2023-07-31T03:16:54;4.85;;;2.40;;
15295;SDS011;7749;49.964;7.890;2023-07-31T03:19:21;4.25;;;2.35;;
15295;SDS011;7749;49.964;7.890;2023-07-31T03:21:48;6.38;;;2.78;;
15295;SDS011;7749;49.964;7.890;2023-07-31T03:24:16;7.35;;;2.72;;
15295;SDS011;7749;49.964;7.890;2023-07-31T03:26:43;5.35;;;2.70;;
15295;SDS011;7749;49.964;7.890;2023-07-31T03:29:11;3.58;;;2.53;;
15295;SDS011;7749;49.964;7.890;2023-07-31T03:31:38;5.07;;;2.80;;
15295;SDS011;7749;49.964;7.890;2023-07-31T03:34:05;7.45;;;2.25;;
15295;SDS011;7749;49.964;7.890;2023-07-31T03:36:33;5.10;;;2.78;;
15295;SDS011;7749;49.964;7.890;2023-07-31T03:39:00;4.45;;;2.35;;
15295;SDS011;7749;49.964;7.890;2023-07-31T03:41:28;3.25;;;2.67;;
15295;SDS011;7749;49.964;7.890;2023-07-31T03:43:55;4.25;;;2.25;;
15295;SDS011;7749;49.964;7.890;2023-07-31T03:46:23;5.85;;;2.42;;
15295;SDS011;7749;49.964;7.890;2023-07-31T03:48:51;6.65;;;2.65;;
15295;SDS011;7749;49.964;7.890;2023-07-31T03:51:19;8.18;;;3.63;;
15295;SDS011;7749;49.964;7.890;2023-07-31T03:53:46;5.07;;;2.92;;
15295;SDS011;7749;49.964;7.890;2023-07-31T03:56:13;4.00;;;2.47;;
15295;SDS011;7749;49.964;7.890;2023-07-31T03:58:41;5.30;;;2.47;;
15295;SDS011;7749;49.964;7.890;2023-07-31T04:01:08;4.95;;;2.40;;
15295;SDS011;7749;49.964;7.890;2023-07-31T04:03:36;5.22;;;2.47;;
15295;SDS011;7749;49.964;7.890;2023-07-31T04:06:03;4.93;;;2.60;;
15295;SDS011;7749;49.964;7.890;2023-07-31T04:08:31;5.13;;;2.70;;
15295;SDS011;7749;49.964;7.890;2023-07-31T04:10:58;3.78;;;2.40;;
15295;SDS011;7749;49.964;7.890;2023-07-31T04:13:25;5.13;;;2.88;;
15295;SDS011;7749;49.964;7.890;2023-07-31T04:15:54;3.72;;;2.28;;
15295;SDS011;7749;49.964;7.890;2023-07-31T04:18:21;6.25;;;2.67;;
15295;SDS011;7749;49.964;7.890;2023-07-31T04:20:51;5.25;;;2.67;;
15295;SDS011;7749;49.964;7.890;2023-07-31T04:23:18;4.80;;;2.40;;
15295;SDS011;7749;49.964;7.890;2023-07-31T04:25:46;6.32;;;2.50;;
15295;SDS011;7749;49.964;7.890;2023-07-31T04:28:13;4.95;;;2.50;;
15295;SDS011;7749;49.964;7.890;2023-07-31T04:30:41;5.25;;;2.67;;
15295;SDS011;7749;49.964;7.890;2023-07-31T04:33:08;6.38;;;2.83;;
15295;SDS011;7749;49.964;7.890;2023-07-31T04:35:36;4.88;;;2.63;;
15295;SDS011;7749;49.964;7.890;2023-07-31T04:38:03;3.95;;;2.60;;
15295;SDS011;7749;49.964;7.890;2023-07-31T04:40:31;6.35;;;2.60;;
15295;SDS011;7749;49.964;7.890;2023-07-31T04:42:58;6.03;;;2.80;;
15295;SDS011;7749;49.964;7.890;2023-07-31T04:45:26;5.38;;;2.67;;
15295;SDS011;7749;49.964;7.890;2023-07-31T04:47:53;4.72;;;2.63;;
15295;SDS011;7749;49.964;7.890;2023-07-31T04:50:21;6.85;;;2.80;;
15295;SDS011;7749;49.964;7.890;2023-07-31T04:52:48;6.38;;;2.85;;
15295;SDS011;7749;49.964;7.890;2023-07-31T04:55:15;5.72;;;2.97;;
15295;SDS011;7749;49.964;7.890;2023-07-31T04:57:43;7.63;;;2.50;;
15295;SDS011;7749;49.964;7.890;2023-07-31T05:00:10;6.18;;;3.20;;
15295;SDS011;7749;49.964;7.890;2023-07-31T05:02:38;6.18;;;2.95;;
15295;SDS011;7749;49.964;7.890;2023-07-31T05:05:06;4.22;;;2.45;;
15295;SDS011;7749;49.964;7.890;2023-07-31T05:07:33;6.80;;;2.97;;
15295;SDS011;7749;49.964;7.890;2023-07-31T05:10:01;8.02;;;2.88;;
15295;SDS011;7749;49.964;7.890;2023-07-31T05:12:28;6.75;;;2.70;;
15295;SDS011;7749;49.964;7.890;2023-07-31T05:14:56;4.93;;;2.65;;
15295;SDS011;7749;49.964;7.890;2023-07-31T05:17:23;6.88;;;2.78;;
15295;SDS011;7749;49.964;7.890;2023-07-31T05:19:51;5.97;;;2.75;;
15295;SDS011;7749;49.964;7.890;2023-07-31T05:22:18;7.82;;;3.40;;
15295;SDS011;7749;49.964;7.890;2023-07-31T05:24:46;6.00;;;2.80;;
15295;SDS011;7749;49.964;7.890;2023-07-31T05:27:13;8.50;;;2.65;;
15295;SDS011;7749;49.964;7.890;2023-07-31T05:29:45;6.07;;;2.50;;
15295;SDS011;7749;49.964;7.890;2023-07-31T05:32:12;6.13;;;2.58;;
15295;SDS011;7749;49.964;7.890;2023-07-31T05:34:40;5.55;;;3.10;;
15295;SDS011;7749;49.964;7.890;2023-07-31T05:37:09;4.35;;;2.60;;
15295;SDS011;7749;49.964;7.890;2023-07-31T05:39:37;4.57;;;2.63;;
15295;SDS011;7749;49.964;7.890;2023-07-31T05:42:05;5.68;;;2.83;;
15295;SDS011;7749;49.964;7.890;2023-07-31T05:44:33;5.22;;;2.83;;
15295;SDS011;7749;49.964;7.890;2023-07-31T05:47:01;3.85;;;2.60;;
15295;SDS011;7749;49.964;7.890;2023-07-31T05:49:28;5.65;;;2.85;;
15295;SDS011;7749;49.964;7.890;2023-07-31T05:51:56;5.55;;;2.42;;
15295;SDS011;7749;49.964;7.890;2023-07-31T05:54:24;5.85;;;2.75;;
15295;SDS011;7749;49.964;7.890;2023-07-31T05:56:51;5.57;;;2.92;;
15295;SDS011;7749;49.964;7.890;2023-07-31T05:59:19;8.80;;;3.08;;
15295;SDS011;7749;49.964;7.890;2023-07-31T06:01:46;6.55;;;2.95;;
15295;SDS011;7749;49.964;7.890;2023-07-31T06:04:13;5.22;;;2.65;;
15295;SDS011;7749;49.964;7.890;2023-07-31T06:06:41;7.07;;;2.90;;
15295;SDS011;7749;49.964;7.890;2023-07-31T06:09:08;7.45;;;3.20;;
15295;SDS011;7749;49.964;7.890;2023-07-31T06:11:36;9.68;;;8.02;;
15295;SDS011;7749;49.964;7.890;2023-07-31T06:14:03;5.13;;;3.00;;
15295;SDS011;7749;49.964;7.890;2023-07-31T06:16:31;4.28;;;2.70;;
15295;SDS011;7749;49.964;7.890;2023-07-31T06:18:58;6.55;;;2.95;;
15295;SDS011;7749;49.964;7.890;2023-07-31T06:24:50;7.00;;;3.05;;
15295;SDS011;7749;49.964;7.890;2023-07-31T06:27:17;6.30;;;3.50;;
15295;SDS011;7749;49.964;7.890;2023-07-31T06:29:44;6.30;;;3.08;;
15295;SDS011;7749;49.964;7.890;2023-07-31T06:32:12;4.85;;;2.70;;
15295;SDS011;7749;49.964;7.890;2023-07-31T06:34:39;6.10;;;2.80;;
15295;SDS011;7749;49.964;7.890;2023-07-31T06:37:07;7.60;;;2.80;;
15295;SDS011;7749;49.964;7.890;2023-07-31T06:39:34;6.18;;;2.83;;
15295;SDS011;7749;49.964;7.890;2023-07-31T06:42:02;8.30;;;3.35;;
15295;SDS011;7749;49.964;7.890;2023-07-31T06:44:29;6.97;;;3.03;;
15295;SDS011;7749;49.964;7.890;2023-07-31T06:46:57;5.13;;;2.90;;
15295;SDS011;7749;49.964;7.890;2023-07-31T06:49:24;6.47;;;2.70;;
15295;SDS011;7749;49.964;7.890;2023-07-31T06:51:52;4.90;;;2.40;;
15295;SDS011;7749;49.964;7.890;2023-07-31T06:54:19;4.85;;;2.65;;
15295;SDS011;7749;49.964;7.890;2023-07-31T06:56:47;5.15;;;2.65;;
15295;SDS011;7749;49.964;7.890;2023-07-31T06:59:14;4.03;;;2.78;;
15295;SDS011;7749;49.964;7.890;2023-07-31T07:01:41;5.43;;;2.60;;
15295;SDS011;7749;49.964;7.890;2023-07-31T07:04:09;5.15;;;2.60;;
15295;SDS011;7749;49.964;7.890;2023-07-31T07:06:37;6.57;;;2.42;;
15295;SDS011;7749;49.964;7.890;2023-07-31T07:09:05;7.18;;;2.95;;
15295;SDS011;7749;49.964;7.890;2023-07-31T07:11:32;3.95;;;2.60;;
15295;SDS011;7749;49.964;7.890;2023-07-31T07:14:00;4.53;;;2.65;;
15295;SDS011;7749;49.964;7.890;2023-07-31T07:16:28;4.30;;;2.70;;
15295;SDS011;7749;49.964;7.890;2023-07-31T07:18:56;4.22;;;2.80;;
15295;SDS011;7749;49.964;7.890;2023-07-31T07:21:31;4.60;;;2.50;;
15295;SDS011;7749;49.964;7.890;2023-07-31T07:23:58;4.97;;;2.35;;
15295;SDS011;7749;49.964;7.890;2023-07-31T07:26:25;4.80;;;2.47;;
15295;SDS011;7749;49.964;7.890;2023-07-31T07:28:53;3.88;;;2.58;;
15295;SDS011;7749;49.964;7.890;2023-07-31T07:31:20;5.20;;;2.80;;
15295;SDS011;7749;49.964;7.890;2023-07-31T07:33:48;5.18;;;2.53;;
15295;SDS011;7749;49.964;7.890;2023-07-31T07:36:16;6.20;;;2.58;;
15295;SDS011;7749;49.964;7.890;2023-07-31T07:38:43;6.07;;;2.35;;
15295;SDS011;7749;49.964;7.890;2023-07-31T07:41:10;5.70;;;2.83;;
15295;SDS011;7749;49.964;7.890;2023-07-31T07:43:38;4.82;;;2.72;;
15295;SDS011;7749;49.964;7.890;2023-07-31T07:46:05;5.65;;;2.88;;
15295;SDS011;7749;49.964;7.890;2023-07-31T07:48:33;7.22;;;3.15;;
15295;SDS011;7749;49.964;7.890;2023-07-31T07:51:00;5.82;;;2.42;;
15295;SDS011;7749;49.964;7.890;2023-07-31T07:53:28;6.25;;;2.92;;
15295;SDS011;7749;49.964;7.890;2023-07-31T07:55:55;6.43;;;2.60;;
15295;SDS011;7749;49.964;7.890;2023-07-31T07:58:23;6.13;;;2.67;;
15295;SDS011;7749;49.964;7.890;2023-07-31T08:00:51;5.10;;;2.78;;
15295;SDS011;7749;49.964;7.890;2023-07-31T08:03:19;6.15;;;2.55;;
15295;SDS011;7749;49.964;7.890;2023-07-31T08:05:46;7.13;;;2.60;;
15295;SDS011;7749;49.964;7.890;2023-07-31T08:08:14;6.00;;;2.70;;
15295;SDS011;7749;49.964;7.890;2023-07-31T08:10:46;6.60;;;3.20;;
15295;SDS011;7749;49.964;7.890;2023-07-31T08:13:14;5.40;;;2.40;;
15295;SDS011;7749;49.964;7.890;2023-07-31T08:15:41;6.25;;;2.78;;
15295;SDS011;7749;49.964;7.890;2023-07-31T08:18:10;6.60;;;2.42;;
15295;SDS011;7749;49.964;7.890;2023-07-31T08:20:40;4.50;;;2.53;;
15295;SDS011;7749;49.964;7.890;2023-07-31T08:23:08;4.68;;;2.40;;
15295;SDS011;7749;49.964;7.890;2023-07-31T08:25:35;5.20;;;2.60;;
15295;SDS011;7749;49.964;7.890;2023-07-31T08:28:04;6.30;;;2.22;;
15295;SDS011;7749;49.964;7.890;2023-07-31T08:30:32;3.42;;;2.30;;
15295;SDS011;7749;49.964;7.890;2023-07-31T08:33:00;5.15;;;2.50;;
15295;SDS011;7749;49.964;7.890;2023-07-31T08:35:28;5.15;;;2.67;;
15295;SDS011;7749;49.964;7.890;2023-07-31T08:38:01;4.55;;;2.50;;
15295;SDS011;7749;49.964;7.890;2023-07-31T08:40:28;4.95;;;2.60;;
15295;SDS011;7749;49.964;7.890;2023-07-31T08:42:56;5.80;;;2.63;;
15295;SDS011;7749;49.964;7.890;2023-07-31T08:45:25;4.82;;;2.70;;
15295;SDS011;7749;49.964;7.890;2023-07-31T08:47:53;4.38;;;2.13;;
15295;SDS011;7749;49.964;7.890;2023-07-31T08:50:22;4.75;;;2.42;;
15295;SDS011;7749;49.964;7.890;2023-07-31T08:52:50;6.07;;;2.70;;
15295;SDS011;7749;49.964;7.890;2023-07-31T08:55:19;6.60;;;2.50;;
15295;SDS011;7749;49.964;7.890;2023-07-31T08:57:52;6.45;;;2.47;;
15295;SDS011;7749;49.964;7.890;2023-07-31T09:00:21;4.78;;;2.70;;
15295;SDS011;7749;49.964;7.890;2023-07-31T09:05:29;4.22;;;2.00;;
15295;SDS011;7749;49.964;7.890;2023-07-31T09:07:57;5.72;;;2.50;;
15295;SDS011;7749;49.964;7.890;2023-07-31T09:10:25;3.75;;;2.50;;
15295;SDS011;7749;49.964;7.890;2023-07-31T09:12:52;4.82;;;2.70;;
15295;SDS011;7749;49.964;7.890;2023-07-31T09:15:20;6.32;;;2.55;;
15295;SDS011;7749;49.964;7.890;2023-07-31T09:18:04;4.93;;;2.63;;
15295;SDS011;7749;49.964;7.890;2023-07-31T09:20:33;3.67;;;2.80;;
15295;SDS011;7749;49.964;7.890;2023-07-31T09:23:07;4.75;;;2.42;;
15295;SDS011;7749;49.964;7.890;2023-07-31T09:25:36;5.45;;;2.50;;
15295;SDS011;7749;49.964;7.890;2023-07-31T09:31:10;4.47;;;2.50;;
15295;SDS011;7749;49.964;7.890;2023-07-31T09:33:30;3.33;;;2.58;;
15295;SDS011;7749;49.964;7.890;2023-07-31T09:35:58;5.18;;;2.75;;
15295;SDS011;7749;49.964;7.890;2023-07-31T09:38:27;4.40;;;2.40;;
15295;SDS011;7749;49.964;7.890;2023-07-31T09:40:55;4.55;;;2.60;;
15295;SDS011;7749;49.964;7.890;2023-07-31T09:43:25;3.75;;;2.28;;
15295;SDS011;7749;49.964;7.890;2023-07-31T09:45:56;4.15;;;2.60;;
15295;SDS011;7749;49.964;7.890;2023-07-31T09:48:24;5.85;;;2.65;;
15295;SDS011;7749;49.964;7.890;2023-07-31T09:50:54;4.45;;;2.38;;
15295;SDS011;7749;49.964;7.890;2023-07-31T09:53:27;4.78;;;2.70;;
15295;SDS011;7749;49.964;7.890;2023-07-31T09:55:59;6.00;;;2.90;;
15295;SDS011;7749;49.964;7.890;2023-07-31T09:58:28;4.28;;;2.38;;
15295;SDS011;7749;49.964;7.890;2023-07-31T10:00:57;4.28;;;2.55;;
15295;SDS011;7749;49.964;7.890;2023-07-31T10:03:26;4.13;;;2.58;;
15295;SDS011;7749;49.964;7.890;2023-07-31T10:05:56;4.28;;;2.80;;
15295;SDS011;7749;49.964;7.890;2023-07-31T10:08:27;3.78;;;2.72;;
15295;SDS011;7749;49.964;7.890;2023-07-31T10:10:59;3.95;;;2.33;;
15295;SDS011;7749;49.964;7.890;2023-07-31T10:13:29;4.38;;;2.60;;
15295;SDS011;7749;49.964;7.890;2023-07-31T10:15:58;3.72;;;2.95;;
15295;SDS011;7749;49.964;7.890;2023-07-31T10:18:27;5.88;;;3.08;;
15295;SDS011;7749;49.964;7.890;2023-07-31T10:20:56;5.20;;;2.53;;
15295;SDS011;7749;49.964;7.890;2023-07-31T10:23:24;6.90;;;2.75;;
15295;SDS011;7749;49.964;7.890;2023-07-31T10:25:55;4.95;;;2.45;;
15295;SDS011;7749;49.964;7.890;2023-07-31T10:28:25;8.52;;;2.83;;
15295;SDS011;7749;49.964;7.890;2023-07-31T10:30:53;6.15;;;2.78;;
15295;SDS011;7749;49.964;7.890;2023-07-31T10:33:21;4.43;;;2.50;;
15295;SDS011;7749;49.964;7.890;2023-07-31T10:35:49;3.58;;;2.78;;
15295;SDS011;7749;49.964;7.890;2023-07-31T10:38:20;4.30;;;2.88;;
15295;SDS011;7749;49.964;7.890;2023-07-31T10:40:50;3.78;;;2.55;;
15295;SDS011;7749;49.964;7.890;2023-07-31T10:43:24;3.47;;;2.38;;
15295;SDS011;7749;49.964;7.890;2023-07-31T10:45:56;6.32;;;2.75;;
15295;SDS011;7749;49.964;7.890;2023-07-31T10:48:24;9.43;;;2.85;;
15295;SDS011;7749;49.964;7.890;2023-07-31T10:50:59;3.22;;;2.55;;
15295;SDS011;7749;49.964;7.890;2023-07-31T10:53:30;3.17;;;2.33;;
15295;SDS011;7749;49.964;7.890;2023-07-31T10:56:08;4.57;;;2.60;;
15295;SDS011;7749;49.964;7.890;2023-07-31T10:58:39;4.45;;;2.35;;
15295;SDS011;7749;49.964;7.890;2023-07-31T11:01:10;4.75;;;2.65;;
15295;SDS011;7749;49.964;7.890;2023-07-31T11:03:41;4.03;;;2.40;;
15295;SDS011;7749;49.964;7.890;2023-07-31T11:06:13;5.88;;;2.60;;
15295;SDS011;7749;49.964;7.890;2023-07-31T11:08:48;4.28;;;2.88;;
15295;SDS011;7749;49.964;7.890;2023-07-31T11:11:17;7.32;;;3.03;;
15295;SDS011;7749;49.964;7.890;2023-07-31T11:13:46;5.22;;;2.40;;
15295;SDS011;7749;49.964;7.890;2023-07-31T11:16:20;5.15;;;2.55;;
15295;SDS011;7749;49.964;7.890;2023-07-31T11:18:49;3.20;;;2.25;;
15295;SDS011;7749;49.964;7.890;2023-07-31T11:21:19;5.18;;;2.38;;
15295;SDS011;7749;49.964;7.890;2023-07-31T11:23:48;4.70;;;2.65;;
15295;SDS011;7749;49.964;7.890;2023-07-31T11:26:18;3.63;;;2.38;;
15295;SDS011;7749;49.964;7.890;2023-07-31T11:28:46;5.32;;;2.42;;
15295;SDS011;7749;49.964;7.890;2023-07-31T11:31:15;5.00;;;2.53;;
15295;SDS011;7749;49.964;7.890;2023-07-31T11:33:43;3.55;;;2.58;;
15295;SDS011;7749;49.964;7.890;2023-07-31T11:36:14;3.67;;;2.75;;
15295;SDS011;7749;49.964;7.890;2023-07-31T11:38:46;5.22;;;2.70;;
15295;SDS011;7749;49.964;7.890;2023-07-31T11:41:14;3.03;;;2.28;;
15295;SDS011;7749;49.964;7.890;2023-07-31T11:43:43;2.58;;;2.20;;
15295;SDS011;7749;49.964;7.890;2023-07-31T11:46:12;4.88;;;2.40;;
15295;SDS011;7749;49.964;7.890;2023-07-31T11:48:42;3.58;;;2.50;;
15295;SDS011;7749;49.964;7.890;2023-07-31T11:51:10;3.70;;;2.70;;
15295;SDS011;7749;49.964;7.890;2023-07-31T11:56:10;6.13;;;2.50;;
15295;SDS011;7749;49.964;7.890;2023-07-31T11:58:39;4.63;;;2.60;;
15295;SDS011;7749;49.964;7.890;2023-07-31T12:01:08;3.80;;;2.50;;
15295;SDS011;7749;49.964;7.890;2023-07-31T12:03:36;4.90;;;2.40;;
15295;SDS011;7749;49.964;7.890;2023-07-31T12:06:04;3.47;;;2.30;;
15295;SDS011;7749;49.964;7.890;2023-07-31T12:08:31;3.67;;;2.60;;
15295;SDS011;7749;49.964;7.890;2023-07-31T12:11:05;4.50;;;2.67;;
15295;SDS011;7749;49.964;7.890;2023-07-31T12:13:36;4.25;;;2.55;;
15295;SDS011;7749;49.964;7.890;2023-07-31T12:16:04;2.97;;;2.28;;
15295;SDS011;7749;49.964;7.890;2023-07-31T12:18:35;5.53;;;2.35;;
15295;SDS011;7749;49.964;7.890;2023-07-31T12:21:04;4.63;;;2.17;;
15295;SDS011;7749;49.964;7.890;2023-07-31T12:23:35;2.45;;;1.77;;
15295;SDS011;7749;49.964;7.890;2023-07-31T12:26:08;4.75;;;2.00;;
15295;SDS011;7749;49.964;7.890;2023-07-31T12:28:45;2.60;;;2.28;;
15295;SDS011;7749;49.964;7.890;2023-07-31T12:31:15;3.13;;;1.80;;
15295;SDS011;7749;49.964;7.890;2023-07-31T12:33:46;4.18;;;2.20;;
15295;SDS011;7749;49.964;7.890;2023-07-31T12:36:17;2.33;;;1.90;;
15295;SDS011;7749;49.964;7.890;2023-07-31T12:38:46;2.80;;;2.30;;
15295;SDS011;7749;49.964;7.890;2023-07-31T12:41:16;2.25;;;1.58;;
15295;SDS011;7749;49.964;7.890;2023-07-31T12:43:44;2.45;;;1.90;;
15295;SDS011;7749;49.964;7.890;2023-07-31T12:46:12;4.13;;;1.83;;
15295;SDS011;7749;49.964;7.890;2023-07-31T12:48:40;3.20;;;1.70;;
15295;SDS011;7749;49.964;7.890;2023-07-31T12:51:07;3.15;;;1.90;;
15295;SDS011;7749;49.964;7.890;2023-07-31T12:53:35;5.13;;;1.95;;
15295;SDS011;7749;49.964;7.890;2023-07-31T12:56:03;2.78;;;2.03;;
15295;SDS011;7749;49.964;7.890;2023-07-31T12:58:31;2.90;;;1.95;;
15295;SDS011;7749;49.964;7.890;2023-07-31T13:00:59;3.40;;;2.22;;
15295;SDS011;7749;49.964;7.890;2023-07-31T13:03:26;3.22;;;2.10;;
15295;SDS011;7749;49.964;7.890;2023-07-31T13:05:54;2.63;;;1.90;;
15295;SDS011;7749;49.964;7.890;2023-07-31T13:08:22;2.22;;;1.77;;
15295;SDS011;7749;49.964;7.890;2023-07-31T13:10:49;3.65;;;2.30;;
15295;SDS011;7749;49.964;7.890;2023-07-31T13:13:16;3.50;;;2.00;;
15295;SDS011;7749;49.964;7.890;2023-07-31T13:15:44;4.22;;;2.08;;
15295;SDS011;7749;49.964;7.890;2023-07-31T13:18:12;3.30;;;2.15;;
15295;SDS011;7749;49.964;7.890;2023-07-31T13:20:39;3.92;;;2.13;;
15295;SDS011;7749;49.964;7.890;2023-07-31T13:23:07;4.20;;;2.05;;
15295;SDS011;7749;49.964;7.890;2023-07-31T13:25:34;3.15;;;2.20;;
15295;SDS011;7749;49.964;7.890;2023-07-31T13:28:02;2.97;;;2.00;;
15295;SDS011;7749;49.964;7.890;2023-07-31T13:30:30;3.88;;;2.25;;
15295;SDS011;7749;49.964;7.890;2023-07-31T13:32:57;3.10;;;2.00;;
15295;SDS011;7749;49.964;7.890;2023-07-31T13:35:25;4.20;;;2.05;;
15295;SDS011;7749;49.964;7.890;2023-07-31T13:37:53;3.47;;;1.85;;
15295;SDS011;7749;49.964;7.890;2023-07-31T13:40:20;4.38;;;2.20;;
15295;SDS011;7749;49.964;7.890;2023-07-31T13:42:48;3.92;;;2.10;;
15295;SDS011;7749;49.964;7.890;2023-07-31T13:45:16;3.50;;;2.33;;
15295;SDS011;7749;49.964;7.890;2023-07-31T13:47:43;2.95;;;2.20;;
15295;SDS011;7749;49.964;7.890;2023-07-31T13:50:11;3.75;;;2.28;;
15295;SDS011;7749;49.964;7.890;2023-07-31T13:52:38;3.97;;;2.22;;
15295;SDS011;7749;49.964;7.890;2023-07-31T13:55:06;3.15;;;2.10;;
15295;SDS011;7749;49.964;7.890;2023-07-31T13:57:34;5.57;;;2.35;;
15295;SDS011;7749;49.964;7.890;2023-07-31T14:00:01;4.45;;;2.20;;
15295;SDS011;7749;49.964;7.890;2023-07-31T14:02:29;4.00;;;2.20;;
15295;SDS011;7749;49.964;7.890;2023-07-31T14:04:57;3.72;;;2.25;;
15295;SDS011;7749;49.964;7.890;2023-07-31T14:07:24;3.78;;;2.10;;
15295;SDS011;7749;49.964;7.890;2023-07-31T14:09:52;3.30;;;2.08;;
15295;SDS011;7749;49.964;7.890;2023-07-31T14:12:19;3.03;;;1.98;;
15295;SDS011;7749;49.964;7.890;2023-07-31T14:15:07;3.50;;;2.05;;
15295;SDS011;7749;49.964;7.890;2023-07-31T14:17:34;4.13;;;2.15;;
15295;SDS011;7749;49.964;7.890;2023-07-31T14:20:02;3.22;;;2.17;;
15295;SDS011;7749;49.964;7.890;2023-07-31T14:22:31;2.95;;;1.90;;
15295;SDS011;7749;49.964;7.890;2023-07-31T14:25:01;2.65;;;1.50;;
15295;SDS011;7749;49.964;7.890;2023-07-31T14:27:29;3.05;;;1.20;;
15295;SDS011;7749;49.964;7.890;2023-07-31T14:29:56;2.28;;;1.17;;
15295;SDS011;7749;49.964;7.890;2023-07-31T14:32:24;1.85;;;1.13;;
15295;SDS011;7749;49.964;7.890;2023-07-31T14:34:52;1.05;;;1.00;;
15295;SDS011;7749;49.964;7.890;2023-07-31T14:37:21;1.80;;;1.15;;
15295;SDS011;7749;49.964;7.890;2023-07-31T14:39:49;2.65;;;1.20;;
15295;SDS011;7749;49.964;7.890;2023-07-31T14:42:17;2.70;;;1.40;;
15295;SDS011;7749;49.964;7.890;2023-07-31T14:44:46;2.17;;;1.45;;
15295;SDS011;7749;49.964;7.890;2023-07-31T14:47:14;3.40;;;1.23;;
15295;SDS011;7749;49.964;7.890;2023-07-31T14:49:41;2.55;;;1.23;;
15295;SDS011;7749;49.964;7.890;2023-07-31T14:52:08;2.55;;;1.23;;
15295;SDS011;7749;49.964;7.890;2023-07-31T14:54:36;2.05;;;1.20;;
15295;SDS011;7749;49.964;7.890;2023-07-31T14:57:06;2.65;;;1.20;;
15295;SDS011;7749;49.964;7.890;2023-07-31T14:59:34;2.47;;;1.70;;
15295;SDS011;7749;49.964;7.890;2023-07-31T15:02:02;3.55;;;1.15;;
15295;SDS011;7749;49.964;7.890;2023-07-31T15:04:30;2.20;;;1.40;;
15295;SDS011;7749;49.964;7.890;2023-07-31T15:06:57;1.63;;;1.50;;
15295;SDS011;7749;49.964;7.890;2023-07-31T15:09:24;3.17;;;1.40;;
15295;SDS011;7749;49.964;7.890;2023-07-31T15:11:52;1.80;;;1.40;;
15295;SDS011;7749;49.964;7.890;2023-07-31T15:14:20;2.63;;;1.30;;
15295;SDS011;7749;49.964;7.890;2023-07-31T15:16:47;2.88;;;2.67;;
15295;SDS011;7749;49.964;7.890;2023-07-31T15:19:15;2.33;;;1.55;;
15295;SDS011;7749;49.964;7.890;2023-07-31T15:21:42;2.92;;;1.70;;
15295;SDS011;7749;49.964;7.890;2023-07-31T15:24:10;3.67;;;1.90;;
15295;SDS011;7749;49.964;7.890;2023-07-31T15:26:37;3.58;;;1.85;;
15295;SDS011;7749;49.964;7.890;2023-07-31T15:29:06;3.00;;;1.70;;